Time;durP1;ratioP1;P1;durP2;ratioP2;P2;SDS_P1;SDS_P2;PMS_P1;PMS_P2;Temp;Humidity;BMP_temperature;BMP_pressure;BME280_temperature;BME280_humidity;BME280_pressure;Samples;Min_cycle;Max_cycle;Signal;HPM_P1;HPM_P2
2023/06/09 00:00:51;;;;;;;8.37;6.77;;;;;;;21.34;60.05;100253.63;5035937;28;20430;-70
2023/06/09 00:03:21;;;;;;;8.63;6.97;;;;;;;21.33;60.01;100252.00;5038066;28;20274;-72
2023/06/09 00:05:49;;;;;;;10.13;7.13;;;;;;;21.30;60.04;100252.41;5035542;28;20752;-73
2023/06/09 00:08:17;;;;;;;10.13;7.37;;;;;;;21.26;60.04;100245.00;5036490;28;20723;-71
2023/06/09 00:10:45;;;;;;;9.23;7.20;;;;;;;21.26;59.99;100248.53;5034881;28;20263;-71
2023/06/09 00:13:12;;;;;;;8.67;7.10;;;;;;;21.22;60.78;100243.81;5036148;28;20288;-71
2023/06/09 00:15:40;;;;;;;11.90;7.73;;;;;;;21.19;60.25;100261.28;5033341;28;20208;-71
2023/06/09 00:18:09;;;;;;;11.10;7.63;;;;;;;21.18;60.40;100248.84;5035602;28;20213;-72
2023/06/09 00:20:38;;;;;;;9.10;7.20;;;;;;;21.15;60.61;100249.22;5035523;28;20243;-70
2023/06/09 00:23:07;;;;;;;11.20;7.53;;;;;;;21.10;61.09;100250.97;5034350;28;20802;-71
2023/06/09 00:25:35;;;;;;;9.83;7.90;;;;;;;21.02;61.33;100254.75;5033643;28;20204;-71
2023/06/09 00:28:03;;;;;;;10.10;7.20;;;;;;;21.00;61.25;100252.28;5034236;28;20300;-71
2023/06/09 00:30:31;;;;;;;8.87;7.20;;;;;;;20.97;61.31;100252.72;5033633;28;20283;-70
2023/06/09 00:33:06;;;;;;;9.20;7.37;;;;;;;20.97;60.99;100251.88;5030952;28;20224;-70
2023/06/09 00:35:34;;;;;;;9.33;7.07;;;;;;;21.00;60.56;100260.38;5033415;28;20206;-72
2023/06/09 00:38:03;;;;;;;10.80;7.77;;;;;;;21.01;60.45;100258.50;5033694;28;20795;-72
2023/06/09 00:40:31;;;;;;;9.27;7.33;;;;;;;21.00;60.34;100256.84;5034182;28;20250;-70
2023/06/09 00:42:59;;;;;;;9.17;7.03;;;;;;;20.96;60.38;100259.16;5032912;28;20355;-72
2023/06/09 00:45:27;;;;;;;8.23;7.33;;;;;;;20.94;60.65;100253.16;5034371;28;20212;-72
2023/06/09 00:47:55;;;;;;;9.83;7.33;;;;;;;20.90;60.67;100261.91;5035796;28;20206;-70
2023/06/09 00:50:23;;;;;;;10.07;8.00;;;;;;;20.78;61.60;100259.09;5035407;28;20200;-70
2023/06/09 00:52:52;;;;;;;10.80;7.83;;;;;;;20.69;61.57;100254.19;5032419;28;20319;-72
2023/06/09 00:55:22;;;;;;;10.57;7.00;;;;;;;20.65;61.61;100260.03;5033112;28;20368;-71
2023/06/09 00:57:55;;;;;;;9.17;7.30;;;;;;;20.62;61.46;100251.56;5032916;28;20765;-73
2023/06/09 01:00:26;;;;;;;8.33;7.00;;;;;;;20.65;61.28;100260.03;5032926;28;20219;-71
2023/06/09 01:02:54;;;;;;;9.53;6.43;;;;;;;20.65;61.34;100259.22;5034909;28;20339;-70
2023/06/09 01:05:22;;;;;;;7.93;7.07;;;;;;;20.71;61.58;100257.50;5032657;28;20288;-71
2023/06/09 01:07:57;;;;;;;9.07;6.97;;;;;;;20.68;61.07;100261.44;5032813;28;20201;-72
2023/06/09 01:10:32;;;;;;;7.93;6.53;;;;;;;20.72;61.06;100253.75;5035634;28;20207;-70
2023/06/09 01:13:10;;;;;;;8.87;6.87;;;;;;;20.76;60.64;100255.00;5034575;28;20716;-72
2023/06/09 01:15:45;;;;;;;9.23;7.37;;;;;;;20.74;60.56;100255.22;5033455;28;20208;-74
2023/06/09 01:18:14;;;;;;;11.50;7.27;;;;;;;20.77;60.63;100252.06;5034974;28;20920;-72
2023/06/09 01:20:49;;;;;;;10.93;7.00;;;;;;;20.75;60.70;100256.88;5032605;28;20262;-72
2023/06/09 01:23:32;;;;;;;9.33;7.00;;;;;;;20.76;60.92;100255.78;5032819;28;20245;-72
2023/06/09 01:26:02;;;;;;;8.00;6.67;;;;;;;20.73;60.90;100258.13;5034247;28;20587;-72
2023/06/09 01:28:31;;;;;;;11.43;7.10;;;;;;;20.74;60.79;100260.59;5034277;28;20260;-71
2023/06/09 01:30:59;;;;;;;9.90;7.33;;;;;;;20.72;60.73;100251.91;5037496;28;20204;-71
2023/06/09 01:33:27;;;;;;;9.43;7.37;;;;;;;20.66;61.13;100247.41;5033275;28;20221;-70
2023/06/09 01:35:56;;;;;;;10.27;7.33;;;;;;;20.64;61.34;100250.31;5032525;28;20204;-71
2023/06/09 01:38:25;;;;;;;12.53;7.43;;;;;;;20.62;61.39;100248.88;5032702;28;20200;-72
2023/06/09 01:40:53;;;;;;;8.20;6.50;;;;;;;20.66;61.09;100244.69;5034831;28;20272;-72
2023/06/09 01:43:22;;;;;;;11.27;7.40;;;;;;;20.71;60.44;100241.34;5031098;28;20266;-70
2023/06/09 01:45:51;;;;;;;9.37;7.20;;;;;;;20.72;60.59;100251.06;5031524;28;20295;-71
2023/06/09 01:48:26;;;;;;;9.53;7.10;;;;;;;20.69;60.44;100244.25;5034167;28;20197;-72
2023/06/09 01:51:00;;;;;;;11.60;7.93;;;;;;;20.69;60.67;100238.84;5033677;28;20829;-72
2023/06/09 01:53:34;;;;;;;11.23;7.63;;;;;;;20.65;61.08;100243.88;5036721;28;20239;-71
2023/06/09 01:56:08;;;;;;;10.50;8.27;;;;;;;20.64;60.99;100246.78;5038012;28;20200;-72
2023/06/09 01:58:43;;;;;;;10.97;7.50;;;;;;;20.62;61.11;100246.16;5036190;28;20212;-71
2023/06/09 02:01:13;;;;;;;9.90;7.67;;;;;;;20.61;61.08;100244.50;5033580;28;20208;-71
2023/06/09 02:03:43;;;;;;;10.80;8.00;;;;;;;20.64;61.02;100244.09;5031727;28;20281;-71
2023/06/09 02:06:12;;;;;;;12.00;7.90;;;;;;;20.63;61.08;100243.25;5030872;28;20208;-71
2023/06/09 02:08:40;;;;;;;9.70;7.27;;;;;;;20.61;61.04;100233.75;5033347;28;20205;-72
2023/06/09 02:11:10;;;;;;;10.23;8.07;;;;;;;20.54;62.02;100247.25;5035189;28;20605;-72
2023/06/09 02:13:39;;;;;;;10.43;7.50;;;;;;;20.47;61.94;100246.50;5033503;28;20256;-71
2023/06/09 02:16:07;;;;;;;10.50;8.47;;;;;;;20.46;62.18;100238.63;5032277;28;20658;-72
2023/06/09 02:18:37;;;;;;;9.47;7.33;;;;;;;20.47;61.99;100240.28;5032246;28;20300;-71
2023/06/09 02:21:04;;;;;;;11.60;8.17;;;;;;;20.44;61.87;100246.91;5032944;28;20258;-72
2023/06/09 02:23:32;;;;;;;8.67;7.70;;;;;;;20.46;61.62;100250.22;5032701;28;20786;-73
2023/06/09 02:26:00;;;;;;;12.40;8.27;;;;;;;20.47;61.69;100245.66;5033698;28;20223;-70
2023/06/09 02:28:28;;;;;;;10.53;7.40;;;;;;;20.44;62.07;100236.16;5031872;28;20228;-70
2023/06/09 02:30:57;;;;;;;10.80;8.43;;;;;;;20.44;61.82;100235.31;5033775;28;20944;-72
2023/06/09 02:33:25;;;;;;;10.33;8.30;;;;;;;20.45;62.01;100236.97;5032286;28;20317;-71
2023/06/09 02:35:53;;;;;;;8.63;7.57;;;;;;;20.40;62.05;100229.56;5031309;28;20622;-71
2023/06/09 02:38:22;;;;;;;11.17;8.87;;;;;;;20.44;62.09;100235.31;5035360;28;20208;-73
2023/06/09 02:40:50;;;;;;;10.03;7.80;;;;;;;20.39;62.30;100236.00;5033309;28;20216;-71
2023/06/09 02:43:18;;;;;;;10.90;8.20;;;;;;;20.37;62.72;100240.75;5034912;28;20300;-70
2023/06/09 02:45:46;;;;;;;11.07;8.27;;;;;;;20.36;62.90;100235.59;5032232;28;20371;-71
2023/06/09 02:48:16;;;;;;;10.40;8.47;;;;;;;20.29;63.10;100238.28;5032206;28;20647;-71
2023/06/09 02:50:43;;;;;;;11.77;8.73;;;;;;;20.31;62.83;100235.41;5035295;28;20331;-72
2023/06/09 02:53:11;;;;;;;11.33;7.93;;;;;;;20.32;62.73;100232.47;5034960;28;20232;-71
2023/06/09 02:55:39;;;;;;;11.20;8.70;;;;;;;20.31;62.97;100238.09;5038326;28;20235;-71
2023/06/09 02:58:07;;;;;;;9.87;8.57;;;;;;;20.29;63.23;100239.13;5034378;28;20211;-71
2023/06/09 03:00:34;;;;;;;10.33;8.77;;;;;;;20.30;63.08;100237.25;5035431;28;20204;-71
2023/06/09 03:03:06;;;;;;;11.20;8.63;;;;;;;20.27;63.23;100235.81;5037756;28;20209;-72
2023/06/09 03:05:40;;;;;;;15.33;8.83;;;;;;;20.27;63.20;100240.38;5035558;28;20712;-70
2023/06/09 03:08:08;;;;;;;12.17;9.30;;;;;;;20.22;63.10;100249.13;5033746;28;20212;-72
2023/06/09 03:10:36;;;;;;;9.63;7.73;;;;;;;20.20;63.48;100242.28;5037204;28;20227;-71
2023/06/09 03:13:03;;;;;;;13.87;8.77;;;;;;;20.24;63.17;100248.88;5038303;28;20256;-72
2023/06/09 03:15:31;;;;;;;13.10;9.50;;;;;;;20.26;63.24;100249.50;5035838;28;20222;-71
2023/06/09 03:17:59;;;;;;;11.43;9.33;;;;;;;20.26;63.14;100244.09;5037147;28;20204;-71
2023/06/09 03:20:27;;;;;;;13.37;8.73;;;;;;;20.19;63.28;100248.72;5035384;28;20208;-72
2023/06/09 03:22:57;;;;;;;13.93;9.40;;;;;;;20.16;63.37;100254.50;5034986;28;20633;-71
2023/06/09 03:25:25;;;;;;;13.00;9.27;;;;;;;20.19;63.03;100257.59;5038304;28;20208;-71
2023/06/09 03:27:53;;;;;;;11.90;9.67;;;;;;;20.22;63.14;100256.38;5036708;28;20247;-71
2023/06/09 03:30:21;;;;;;;12.93;8.57;;;;;;;20.24;62.60;100248.88;5035000;28;20613;-71
2023/06/09 03:32:50;;;;;;;13.33;8.70;;;;;;;20.25;62.97;100256.75;5038580;28;20281;-72
2023/06/09 03:35:18;;;;;;;12.80;8.97;;;;;;;20.25;63.14;100247.84;5035613;28;20201;-71
2023/06/09 03:37:46;;;;;;;10.47;8.17;;;;;;;20.24;63.21;100259.66;5036894;28;20711;-71
2023/06/09 03:40:15;;;;;;;13.03;9.47;;;;;;;20.24;63.05;100262.34;5037772;28;20298;-70
2023/06/09 03:42:43;;;;;;;11.30;8.90;;;;;;;20.22;63.31;100256.38;5038462;28;21006;-71
2023/06/09 03:45:11;;;;;;;12.47;9.03;;;;;;;20.19;63.35;100259.47;5038872;28;20320;-70
2023/06/09 03:47:39;;;;;;;11.03;8.67;;;;;;;20.16;63.13;100254.50;5036096;28;20209;-72
2023/06/09 03:50:08;;;;;;;11.57;8.30;;;;;;;20.19;63.31;100249.53;5036794;28;20208;-71
2023/06/09 03:52:37;;;;;;;12.03;9.23;;;;;;;20.18;63.25;100250.56;5034574;28;20205;-72
2023/06/09 03:55:08;;;;;;;11.57;9.40;;;;;;;20.15;63.38;100252.84;5037409;28;20220;-71
2023/06/09 03:57:37;;;;;;;14.27;8.47;;;;;;;20.12;63.27;100262.22;5034193;28;20691;-72
2023/06/09 04:00:06;;;;;;;11.20;8.70;;;;;;;20.15;62.86;100255.56;5035431;28;21188;-71
2023/06/09 04:02:34;;;;;;;10.57;8.93;;;;;;;20.19;63.11;100259.47;5034197;28;20204;-72
2023/06/09 04:05:03;;;;;;;12.50;8.57;;;;;;;20.17;63.32;100257.00;5034233;28;20207;-72
2023/06/09 04:07:31;;;;;;;11.03;8.10;;;;;;;20.17;62.91;100253.47;5036679;28;20212;-73
2023/06/09 04:09:58;;;;;;;12.27;8.90;;;;;;;20.17;63.13;100258.84;5033465;28;20788;-72
2023/06/09 04:12:26;;;;;;;11.17;8.67;;;;;;;20.16;62.96;100260.72;5036414;28;20696;-73
2023/06/09 04:14:55;;;;;;;10.93;8.57;;;;;;;20.14;63.30;100256.63;5036081;28;20234;-71
2023/06/09 04:17:23;;;;;;;9.57;8.43;;;;;;;20.10;62.88;100256.22;5034453;28;20213;-71
2023/06/09 04:19:54;;;;;;;10.77;8.70;;;;;;;20.08;63.04;100257.47;5035438;28;20212;-72
2023/06/09 04:22:22;;;;;;;11.10;8.53;;;;;;;20.12;63.24;100261.38;5035769;28;20254;-72
2023/06/09 04:24:50;;;;;;;17.47;9.27;;;;;;;20.13;63.31;100252.28;5035701;28;20859;-71
2023/06/09 04:27:19;;;;;;;10.77;8.73;;;;;;;20.14;62.90;100251.22;5032432;28;20255;-72
2023/06/09 04:29:46;;;;;;;11.23;8.00;;;;;;;20.15;63.11;100259.06;5035608;28;20213;-71
2023/06/09 04:32:16;;;;;;;13.67;8.83;;;;;;;20.14;63.07;100253.94;5035599;28;20204;-70
2023/06/09 04:34:45;;;;;;;14.33;8.37;;;;;;;20.16;62.99;100254.50;5035344;28;20224;-70
2023/06/09 04:37:13;;;;;;;11.93;7.93;;;;;;;20.13;62.85;100255.78;5036478;28;20274;-71
2023/06/09 04:39:45;;;;;;;10.63;8.07;;;;;;;20.16;62.72;100265.28;5033496;28;20205;-73
2023/06/09 04:42:14;;;;;;;13.67;8.53;;;;;;;20.18;62.74;100253.25;5032737;28;20219;-72
2023/06/09 04:44:41;;;;;;;10.63;7.90;;;;;;;20.25;62.40;100261.28;5036707;28;20300;-72
2023/06/09 04:47:12;;;;;;;9.33;8.10;;;;;;;20.33;61.76;100265.59;5035938;28;20741;-72
2023/06/09 04:49:41;;;;;;;12.93;8.90;;;;;;;20.29;63.13;100259.84;5032474;28;20200;-71
2023/06/09 04:52:10;;;;;;;10.87;8.07;;;;;;;20.14;63.56;100256.63;5033175;28;20682;-71
2023/06/09 04:54:38;;;;;;;11.03;9.20;;;;;;;20.15;62.76;100261.75;5033349;28;20240;-71
2023/06/09 04:57:09;;;;;;;10.90;8.30;;;;;;;20.23;63.07;100263.38;5032558;28;20205;-71
2023/06/09 04:59:37;;;;;;;11.33;7.80;;;;;;;20.21;62.64;100268.16;5032735;28;20209;-71
2023/06/09 05:02:05;;;;;;;10.33;7.80;;;;;;;20.21;62.76;100271.69;5034655;28;20258;-71
2023/06/09 05:04:33;;;;;;;10.93;8.10;;;;;;;20.21;63.48;100268.16;5033850;28;20291;-70
2023/06/09 05:07:03;;;;;;;9.53;8.13;;;;;;;20.27;62.36;100262.75;5033071;28;20255;-71
2023/06/09 05:09:31;;;;;;;10.50;7.83;;;;;;;20.32;62.98;100272.84;5032609;28;20204;-70
2023/06/09 05:11:59;;;;;;;10.63;8.50;;;;;;;20.33;62.92;100273.66;5033937;28;20304;-71
2023/06/09 05:14:27;;;;;;;13.53;8.43;;;;;;;20.32;62.95;100275.53;5034265;28;20250;-70
2023/06/09 05:17:00;;;;;;;13.67;8.60;;;;;;;20.38;62.76;100274.72;5031961;28;20269;-72
2023/06/09 05:19:28;;;;;;;12.97;8.17;;;;;;;20.44;62.84;100273.03;5035349;28;20207;-71
2023/06/09 05:21:56;;;;;;;10.07;8.30;;;;;;;20.44;62.73;100268.47;5033710;28;20996;-71
2023/06/09 05:24:26;;;;;;;14.27;8.77;;;;;;;20.50;62.55;100270.28;5036297;28;20208;-70
2023/06/09 05:26:53;;;;;;;10.73;8.57;;;;;;;20.49;63.28;100263.25;5033033;28;20292;-71
2023/06/09 05:29:21;;;;;;;11.00;8.03;;;;;;;20.52;62.52;100270.06;5037852;28;20705;-72
2023/06/09 05:31:49;;;;;;;9.93;8.20;;;;;;;20.53;62.61;100271.72;5040123;28;20228;-70
2023/06/09 05:34:17;;;;;;;10.60;7.17;;;;;;;20.59;62.24;100266.28;5034576;28;20240;-71
2023/06/09 05:36:45;;;;;;;11.40;8.70;;;;;;;20.65;62.22;100276.19;5037503;28;20314;-71
2023/06/09 05:39:16;;;;;;;9.20;7.67;;;;;;;20.71;61.63;100279.88;5033272;28;20255;-70
2023/06/09 05:41:45;;;;;;;20.77;9.97;;;;;;;20.77;61.97;100283.56;5035538;28;20236;-71
2023/06/09 05:44:13;;;;;;;13.57;8.83;;;;;;;20.76;61.81;100285.44;5034590;28;20218;-71
2023/06/09 05:46:41;;;;;;;14.17;9.20;;;;;;;20.79;61.75;100285.00;5038747;28;20672;-71
2023/06/09 05:49:08;;;;;;;11.20;8.17;;;;;;;20.83;62.13;100280.84;5037678;28;20700;-70
2023/06/09 05:51:36;;;;;;;13.80;8.97;;;;;;;20.86;62.18;100276.84;5033744;28;20241;-70
2023/06/09 05:54:06;;;;;;;10.77;8.30;;;;;;;20.89;62.21;100287.22;5034525;28;20213;-71
2023/06/09 05:56:34;;;;;;;10.07;7.60;;;;;;;20.91;62.14;100293.22;5034211;28;20665;-71
2023/06/09 05:59:03;;;;;;;15.43;7.97;;;;;;;20.97;61.25;100297.72;5033759;28;20206;-70
2023/06/09 06:01:31;;;;;;;11.43;8.33;;;;;;;20.99;62.19;100295.63;5031501;28;20214;-71
2023/06/09 06:03:59;;;;;;;12.10;8.27;;;;;;;21.02;61.54;100300.59;5033074;28;20270;-71
2023/06/09 06:06:27;;;;;;;15.53;9.27;;;;;;;21.06;61.61;100301.78;5034031;28;20231;-70
2023/06/09 06:08:55;;;;;;;13.83;8.27;;;;;;;21.07;61.76;100297.22;5034367;28;20306;-70
2023/06/09 06:11:23;;;;;;;17.47;8.87;;;;;;;21.09;61.93;100293.25;5032818;28;20764;-71
2023/06/09 06:13:50;;;;;;;13.63;8.47;;;;;;;21.11;61.97;100298.44;5033364;28;20212;-72
2023/06/09 06:16:19;;;;;;;10.77;8.80;;;;;;;21.14;61.75;100287.19;5033479;28;20232;-70
2023/06/09 06:18:47;;;;;;;14.67;9.07;;;;;;;21.19;61.35;100299.03;5033963;28;20211;-71
2023/06/09 06:21:15;;;;;;;12.50;8.83;;;;;;;21.23;61.50;100302.91;5030531;28;20339;-71
2023/06/09 06:23:43;;;;;;;11.27;8.17;;;;;;;21.29;61.10;100306.56;5030057;28;20247;-71
2023/06/09 06:26:11;;;;;;;10.27;8.03;;;;;;;21.32;61.18;100298.88;5031426;28;20670;-71
2023/06/09 06:28:39;;;;;;;14.50;8.23;;;;;;;21.35;60.61;100301.16;5038095;28;20633;-73
2023/06/09 06:31:06;;;;;;;11.20;8.00;;;;;;;21.39;60.52;100298.81;5038844;28;20236;-72
2023/06/09 06:33:35;;;;;;;12.20;8.07;;;;;;;21.46;60.60;100293.38;5037223;28;20312;-71
2023/06/09 06:36:04;;;;;;;10.37;8.10;;;;;;;21.47;61.14;100289.59;5035741;28;20232;-73
2023/06/09 06:38:32;;;;;;;11.93;9.10;;;;;;;21.51;60.12;100291.63;5036565;28;20236;-73
2023/06/09 06:40:59;;;;;;;10.87;8.43;;;;;;;21.55;60.42;100284.72;5036516;28;20277;-73
2023/06/09 06:43:27;;;;;;;13.47;9.07;;;;;;;21.59;60.66;100290.50;5035961;28;20219;-65
2023/06/09 06:45:55;;;;;;;11.80;8.10;;;;;;;21.63;60.54;100289.03;5033540;28;20300;-70
2023/06/09 06:48:23;;;;;;;11.77;8.63;;;;;;;21.69;60.12;100298.91;5034239;28;20209;-64
2023/06/09 06:50:52;;;;;;;11.57;8.90;;;;;;;21.74;61.48;100293.66;5034903;28;20201;-67
2023/06/09 06:53:19;;;;;;;17.77;9.60;;;;;;;21.78;60.73;100290.28;5034910;28;20216;-64
2023/06/09 06:55:47;;;;;;;12.00;8.67;;;;;;;21.81;60.67;100293.59;5036366;28;20247;-63
2023/06/09 06:58:15;;;;;;;17.33;10.07;;;;;;;21.83;60.70;100295.00;5033485;28;20213;-65
2023/06/09 07:00:43;;;;;;;23.93;10.50;;;;;;;21.87;60.63;100293.53;5035700;28;20211;-66
2023/06/09 07:03:11;;;;;;;11.93;8.33;;;;;;;21.88;60.33;100295.16;5036817;28;20209;-68
2023/06/09 07:05:40;;;;;;;10.13;7.47;;;;;;;21.94;59.86;100302.34;5036161;28;20233;-66
2023/06/09 07:08:09;;;;;;;11.17;7.67;;;;;;;22.01;59.69;100307.69;5037542;28;20209;-64
2023/06/09 07:10:36;;;;;;;9.60;7.27;;;;;;;22.06;60.27;100314.09;5034422;28;20651;-66
2023/06/09 07:13:05;;;;;;;10.17;6.70;;;;;;;22.10;59.01;100311.75;5036985;28;20208;-65
2023/06/09 07:15:33;;;;;;;7.57;6.47;;;;;;;22.14;58.30;100319.19;5034547;28;20220;-66
2023/06/09 07:18:00;;;;;;;8.80;5.73;;;;;;;22.17;58.45;100317.03;5040668;28;20564;-64
2023/06/09 07:20:28;;;;;;;10.40;6.17;;;;;;;22.21;58.22;100320.97;5040594;28;21005;-65
2023/06/09 07:22:56;;;;;;;9.33;5.97;;;;;;;22.26;58.52;100318.38;5042450;28;20247;-65
2023/06/09 07:25:25;;;;;;;9.00;5.80;;;;;;;22.32;57.32;100307.50;5036509;28;20212;-65
2023/06/09 07:27:53;;;;;;;11.17;7.20;;;;;;;22.39;58.28;100319.03;5039149;28;20225;-69
2023/06/09 07:30:21;;;;;;;8.57;6.30;;;;;;;22.42;58.22;100315.06;5039596;28;20216;-65
2023/06/09 07:32:49;;;;;;;9.97;7.30;;;;;;;22.48;59.16;100324.94;5036963;28;20686;-65
2023/06/09 07:35:19;;;;;;;8.87;6.73;;;;;;;22.55;59.55;100322.97;5033493;28;20228;-65
2023/06/09 07:37:48;;;;;;;9.47;6.27;;;;;;;22.62;58.88;100322.88;5035108;28;20205;-65
2023/06/09 07:40:16;;;;;;;9.83;7.43;;;;;;;22.71;58.65;100329.59;5033497;28;20200;-64
2023/06/09 07:42:49;;;;;;;10.83;7.23;;;;;;;22.75;57.01;100337.06;5037383;28;20250;-66
2023/06/09 07:45:18;;;;;;;11.30;7.77;;;;;;;22.80;58.70;100325.53;5037726;28;20211;-65
2023/06/09 07:47:45;;;;;;;11.83;8.10;;;;;;;22.83;58.75;100330.50;5035368;28;20206;-67
2023/06/09 07:50:14;;;;;;;10.93;6.87;;;;;;;22.91;58.01;100340.16;5035826;28;20373;-67
2023/06/09 07:52:41;;;;;;;12.32;7.22;;;;;;;22.92;57.18;100337.22;5035707;28;20215;-65
2023/06/09 07:55:09;;;;;;;10.05;7.28;;;;;;;22.97;58.22;100334.63;5036215;28;20212;-65
2023/06/09 07:57:42;;;;;;;8.93;7.68;;;;;;;23.04;57.56;100329.13;5034583;28;20214;-70
2023/06/09 08:00:13;;;;;;;10.30;7.72;;;;;;;23.11;58.80;100329.84;5034791;28;20208;-65
2023/06/09 08:02:42;;;;;;;11.75;7.88;;;;;;;23.15;59.03;100328.31;5035258;28;20312;-66
2023/06/09 08:05:11;;;;;;;8.73;7.45;;;;;;;23.24;58.58;100329.59;5032869;28;20308;-68
2023/06/09 08:07:39;;;;;;;8.57;7.40;;;;;;;23.30;56.94;100322.47;5034324;28;20313;-67
2023/06/09 08:10:07;;;;;;;8.98;5.93;;;;;;;23.39;57.10;100332.69;5033243;28;20819;-67
2023/06/09 08:12:37;;;;;;;8.23;7.25;;;;;;;23.47;56.82;100329.63;5035567;28;20287;-65
2023/06/09 08:15:06;;;;;;;8.85;7.45;;;;;;;23.56;56.68;100330.97;5033944;28;20200;-66
2023/06/09 08:17:35;;;;;;;11.52;6.80;;;;;;;23.64;56.51;100327.06;5035246;28;20228;-65
2023/06/09 08:20:05;;;;;;;10.57;7.13;;;;;;;23.75;56.09;100328.91;5033963;28;20205;-66
2023/06/09 08:22:34;;;;;;;9.73;6.85;;;;;;;23.83;54.91;100323.16;5035399;28;20240;-66
2023/06/09 08:25:03;;;;;;;9.77;6.97;;;;;;;23.87;55.13;100323.47;5032831;28;20515;-69
2023/06/09 08:27:31;;;;;;;9.85;6.35;;;;;;;;;;5033626;28;20240;-68
2023/06/09 08:29:59;;;;;;;8.50;6.57;;;;;;;24.02;54.64;100316.50;5034961;28;20208;-65
2023/06/09 08:32:26;;;;;;;8.20;6.57;;;;;;;24.10;54.58;100312.56;5033498;28;20208;-66
2023/06/09 08:34:55;;;;;;;9.20;5.95;;;;;;;24.21;53.66;100313.66;5034597;28;20208;-72
2023/06/09 08:37:25;;;;;;;8.77;6.75;;;;;;;24.22;53.41;100320.72;5035924;28;20336;-67
2023/06/09 08:39:54;;;;;;;10.80;6.63;;;;;;;24.33;52.56;100317.16;5033027;28;20208;-64
2023/06/09 08:42:25;;;;;;;10.35;6.38;;;;;;;24.41;52.77;100321.34;5033927;28;20212;-68
2023/06/09 08:45:00;;;;;;;9.82;5.97;;;;;;;24.50;53.18;100309.06;5035947;28;20212;-66
2023/06/09 08:47:33;;;;;;;10.55;6.72;;;;;;;24.55;52.80;100298.28;5037761;28;20295;-70
2023/06/09 08:50:04;;;;;;;7.50;6.03;;;;;;;24.65;52.90;100296.59;5035985;28;20197;-67
2023/06/09 08:52:33;;;;;;;6.72;6.03;;;;;;;24.71;52.70;100297.53;5035068;28;20895;-68
2023/06/09 08:55:00;;;;;;;11.70;6.63;;;;;;;24.84;52.05;100296.38;5034572;28;20299;-69
2023/06/09 08:57:29;;;;;;;91.00;12.90;;;;;;;24.87;52.48;100290.47;5034531;28;21240;-65
2023/06/09 08:59:57;;;;;;;84.85;14.07;;;;;;;24.94;52.90;100291.13;5034143;28;20223;-64
2023/06/09 09:02:25;;;;;;;15.90;5.88;;;;;;;24.98;51.64;100295.81;5032257;28;20290;-66
2023/06/09 09:04:53;;;;;;;11.40;6.10;;;;;;;25.10;51.53;100288.41;5036301;28;20211;-67
2023/06/09 09:07:22;;;;;;;8.95;5.72;;;;;;;25.20;51.33;100284.22;5034909;28;20216;-68
2023/06/09 09:09:50;;;;;;;7.72;5.65;;;;;;;25.29;51.69;100291.69;5036256;28;20247;-67
2023/06/09 09:12:18;;;;;;;7.05;5.50;;;;;;;25.35;50.89;100279.00;5033637;28;20567;-66
2023/06/09 09:14:46;;;;;;;6.65;5.68;;;;;;;25.44;50.18;100288.38;5035642;28;20317;-66
2023/06/09 09:17:15;;;;;;;7.72;5.35;;;;;;;25.49;50.18;100283.03;5033992;28;20718;-64
2023/06/09 09:19:47;;;;;;;8.25;5.90;;;;;;;25.62;50.15;100282.69;5034779;28;20274;-66
2023/06/09 09:22:15;;;;;;;6.88;5.80;;;;;;;25.68;50.56;100289.81;5032673;28;20571;-70
2023/06/09 09:24:47;;;;;;;13.68;5.53;;;;;;;25.78;50.94;100289.13;5037365;28;20336;-64
2023/06/09 09:27:19;;;;;;;12.95;4.40;;;;;;;25.90;50.80;100280.84;5034150;28;20698;-65
2023/06/09 09:29:47;;;;;;;12.63;4.05;;;;;;;25.96;51.36;100286.09;5030252;28;20209;-68
2023/06/09 09:32:16;;;;;;;7.38;5.57;;;;;;;25.85;51.22;100284.34;5031722;28;20211;-68
2023/06/09 09:34:46;;;;;;;239.60;21.60;;;;;;;25.80;52.01;100276.13;5031417;28;20208;-67
2023/06/09 09:37:15;;;;;;;13.90;4.97;;;;;;;25.75;52.23;100270.63;5034106;28;20657;-64
2023/06/09 09:39:54;;;;;;;7.38;4.75;;;;;;;25.69;51.99;100266.19;5034648;28;20201;-63
2023/06/09 09:42:22;;;;;;;17.77;4.90;;;;;;;25.69;52.41;100272.44;5033661;28;20295;-72
2023/06/09 09:44:51;;;;;;;6.30;5.35;;;;;;;25.71;52.07;100273.03;5032787;28;20573;-66
2023/06/09 09:47:19;;;;;;;7.68;5.30;;;;;;;25.73;51.18;100260.03;5035601;28;20302;-65
2023/06/09 09:49:52;;;;;;;14.00;6.00;;;;;;;25.74;51.49;100258.94;5033794;28;20208;-63
2023/06/09 09:52:24;;;;;;;9.05;5.78;;;;;;;25.86;52.22;100251.47;5027165;28;21701;-67
2023/06/09 09:54:54;;;;;;;8.07;5.78;;;;;;;26.07;51.13;100252.53;5031997;28;20227;-64
2023/06/09 09:57:24;;;;;;;9.63;5.32;;;;;;;26.16;49.22;100244.75;5030714;28;20239;-67
2023/06/09 09:59:53;;;;;;;7.80;5.53;;;;;;;26.40;48.06;100245.28;5031398;28;20278;-66
2023/06/09 10:02:24;;;;;;;7.10;5.32;;;;;;;26.59;47.01;100235.69;5029125;28;20246;-68
2023/06/09 10:04:52;;;;;;;6.40;5.00;;;;;;;26.71;46.69;100235.50;5029809;28;20204;-69
2023/06/09 10:07:22;;;;;;;11.65;4.82;;;;;;;26.83;47.74;100238.84;5031637;28;20223;-65
2023/06/09 10:09:52;;;;;;;9.50;4.97;;;;;;;26.95;45.93;100242.25;5031520;28;20221;-66
2023/06/09 10:12:22;;;;;;;8.27;5.20;;;;;;;26.99;46.17;100232.50;5031273;28;20266;-66
2023/06/09 10:14:52;;;;;;;6.97;4.93;;;;;;;27.06;45.37;100229.53;5029831;28;20245;-69
2023/06/09 10:17:22;;;;;;;5.82;4.82;;;;;;;27.16;45.67;100221.44;5028195;28;20331;-66
2023/06/09 10:19:52;;;;;;;7.10;4.82;;;;;;;27.24;44.11;100213.59;5030278;28;20838;-65
2023/06/09 10:22:20;;;;;;;6.20;4.63;;;;;;;27.41;44.25;100218.03;5032920;28;20317;-67
2023/06/09 10:24:49;;;;;;;6.20;4.85;;;;;;;27.51;44.84;100212.66;5029671;28;20279;-65
2023/06/09 10:27:17;;;;;;;7.30;4.60;;;;;;;27.59;44.87;100215.72;5031890;28;20296;-65
2023/06/09 10:29:48;;;;;;;9.82;4.53;;;;;;;27.73;44.92;100212.47;5033292;28;20208;-65
2023/06/09 10:32:16;;;;;;;5.60;3.70;;;;;;;27.62;43.07;100206.16;5030545;28;20200;-71
2023/06/09 10:34:48;;;;;;;6.32;4.43;;;;;;;27.44;41.57;100220.25;5034352;28;20589;-68
2023/06/09 10:37:29;;;;;;;5.35;4.05;;;;;;;27.34;40.37;100212.84;5029388;28;20264;-66
2023/06/09 10:40:02;;;;;;;5.18;3.92;;;;;;;27.40;41.12;100216.41;5026172;28;21108;-67
2023/06/09 10:42:37;;;;;;;4.68;3.50;;;;;;;27.57;40.41;100217.06;5030289;28;20201;-67
2023/06/09 10:45:13;;;;;;;5.57;3.72;;;;;;;27.63;39.82;100207.81;5026891;28;20217;-66
2023/06/09 10:47:45;;;;;;;4.78;3.10;;;;;;;27.48;39.74;100207.72;5028887;28;20208;-68
2023/06/09 10:50:24;;;;;;;4.10;3.20;;;;;;;27.54;40.30;100201.22;5028304;28;20251;-73
2023/06/09 10:52:56;;;;;;;6.40;3.45;;;;;;;27.73;39.96;100199.69;5035586;28;20254;-65
2023/06/09 10:55:27;;;;;;;3.83;3.13;;;;;;;27.88;39.04;100202.44;5032172;28;20214;-69
2023/06/09 10:57:55;;;;;;;5.40;3.80;;;;;;;27.82;38.76;100195.34;5030929;28;20228;-66
2023/06/09 11:00:25;;;;;;;4.78;3.65;;;;;;;28.07;38.72;100192.69;5031485;28;20211;-68
2023/06/09 11:03:31;;;;;;;9.52;3.47;;;;;;;28.23;39.48;100187.31;5031051;28;20208;-67
2023/06/09 11:06:00;;;;;;;3.75;3.03;;;;;;;28.35;38.07;100190.56;5031845;28;20538;-68
2023/06/09 11:09:09;;;;;;;5.32;3.58;;;;;;;28.61;37.72;100184.00;5027385;28;20208;-67
2023/06/09 11:11:50;;;;;;;4.43;3.20;;;;;;;28.66;36.79;100186.75;5029314;28;20291;-67
2023/06/09 11:14:56;;;;;;;3.97;3.00;;;;;;;28.60;36.93;100185.09;5030003;28;20298;-64
2023/06/09 11:17:27;;;;;;;5.05;3.63;;;;;;;28.56;38.31;100175.84;5028512;28;20725;-68
2023/06/09 11:20:11;;;;;;;5.25;3.45;;;;;;;28.49;37.17;100178.03;5033967;28;20303;-67
2023/06/09 11:23:03;;;;;;;5.53;3.40;;;;;;;28.63;37.34;100181.03;5030664;28;20243;-72
2023/06/09 11:25:35;;;;;;;6.15;3.63;;;;;;;28.61;36.81;100175.84;5033073;28;20627;-67
2023/06/09 11:28:21;;;;;;;4.50;3.97;;;;;;;28.90;36.10;100175.28;5031477;28;20227;-69
2023/06/09 11:31:04;;;;;;;5.50;3.53;;;;;;;28.90;35.82;100175.28;5034638;28;20208;-65
2023/06/09 11:33:49;;;;;;;6.22;3.42;;;;;;;29.02;35.59;100162.19;5035798;28;20625;-66